createdAt,value
2018-04-22T00:00:12.905Z,87.74
2018-04-22T00:01:12.898Z,87.74
2018-04-22T00:02:13.142Z,87.36
2018-04-22T00:03:13.135Z,87.74
2018-04-22T00:04:13.129Z,87.84
2018-04-22T00:05:13.120Z,87.93
2018-04-22T00:06:13.112Z,88.31
2018-04-22T00:07:12.851Z,88.27
2018-04-22T00:08:12.843Z,88.27
2018-04-22T00:09:12.847Z,88.08
2018-04-22T00:10:13.080Z,88.18
2018-04-22T00:11:13.079Z,88.51
2018-04-22T00:12:13.066Z,88.12
2018-04-22T00:13:12.809Z,88.84
2018-04-22T00:14:13.051Z,88.93
2018-04-22T00:15:12.791Z,88.41
2018-04-22T00:16:12.781Z,88.27
2018-04-22T00:17:13.030Z,88.46
2018-04-22T00:18:13.018Z,88.75
2018-04-22T00:19:12.764Z,89.03
2018-04-22T00:20:13.006Z,88.84
2018-04-22T00:21:12.995Z,88.84
2018-04-22T00:22:12.996Z,89.13
2018-04-22T00:23:12.981Z,89.7
2018-04-22T00:24:12.972Z,89.61
2018-04-22T00:25:12.962Z,89.61
2018-04-22T00:26:12.703Z,90.08
2018-04-22T00:27:12.966Z,90.08
2018-04-22T00:28:12.686Z,90.27
2018-04-22T00:29:12.934Z,90.17
2018-04-22T00:30:12.671Z,89.98
2018-04-22T00:31:12.917Z,90.27
2018-04-22T00:32:12.916Z,90.27
2018-04-22T00:33:12.899Z,89.98
2018-04-22T00:34:12.892Z,90.17
2018-04-22T00:35:12.887Z,90.46
2018-04-22T00:36:12.876Z,90.65
2018-04-22T00:37:12.869Z,90.65
2018-04-22T00:38:12.862Z,90.32
2018-04-22T00:39:12.852Z,90.99
2018-04-22T00:40:12.843Z,90.7
2018-04-22T00:41:12.836Z,91.08
2018-04-22T00:42:12.827Z,90.99
2018-04-22T00:43:12.568Z,90.8
2018-04-22T00:44:12.822Z,90.89
2018-04-22T00:45:12.812Z,90.99
2018-04-22T00:46:12.796Z,90.8
2018-04-22T00:47:12.802Z,90.61
2018-04-22T00:48:12.827Z,90.99
2018-04-22T00:49:12.778Z,90.8
2018-04-22T00:50:12.764Z,90.99
2018-04-22T00:51:12.760Z,91.56
2018-04-22T00:52:12.752Z,91.84
2018-04-22T00:53:12.748Z,91.46
2018-04-22T00:54:12.479Z,91.17
2018-04-22T00:55:12.473Z,91.94
2018-04-22T00:56:12.716Z,91.75
2018-04-22T00:57:12.725Z,92.22
2018-04-22T00:58:12.699Z,92.03
2018-04-22T00:59:12.700Z,91.84
2018-04-22T01:00:12.685Z,92.22
2018-04-22T01:01:12.685Z,92.03
2018-04-22T01:02:12.668Z,92.41
2018-04-22T01:03:12.657Z,92.41
2018-04-22T01:04:12.655Z,92.51
2018-04-22T01:05:12.641Z,92.6
2018-04-22T01:06:12.656Z,92.51
2018-04-22T01:07:12.627Z,92.13
2018-04-22T01:08:12.372Z,92.51
2018-04-22T01:09:12.609Z,92.32
2018-04-22T01:10:12.607Z,92.41
2018-04-22T01:11:12.591Z,92.51
2018-04-22T01:12:12.626Z,92.27
2018-04-22T01:13:12.651Z,92.46
2018-04-22T01:14:12.318Z,92.75
2018-04-22T01:15:12.558Z,92.51
2018-04-22T01:16:12.555Z,92.7
2018-04-22T01:17:12.287Z,93.23
2018-04-22T01:18:12.282Z,92.99
2018-04-22T01:19:12.270Z,93.13
2018-04-22T01:20:12.514Z,93.04
2018-04-22T01:21:12.512Z,92.94
2018-04-22T01:22:12.499Z,92.75
2018-04-22T01:23:12.238Z,92.84
2018-04-22T01:24:12.486Z,93.13
2018-04-22T01:25:12.474Z,93.23
2018-04-22T01:26:12.466Z,93.41
2018-04-22T01:27:12.457Z,93.79
2018-04-22T01:28:12.450Z,93.7
2018-04-22T01:29:12.444Z,93.6
2018-04-22T01:30:12.432Z,93.7
2018-04-22T01:31:12.429Z,93.51
2018-04-22T01:32:12.416Z,93.79
2018-04-22T01:33:12.409Z,93.41
2018-04-22T01:34:12.399Z,93.6
2018-04-22T01:35:12.391Z,93.32
2018-04-22T01:36:12.386Z,93.6
2018-04-22T01:37:12.372Z,93.79
2018-04-22T01:38:12.363Z,93.41
2018-04-22T01:39:12.355Z,93.7
2018-04-22T01:40:12.347Z,93.89
2018-04-22T01:41:12.342Z,93.51
2018-04-22T01:42:12.086Z,93.89
2018-04-22T01:43:12.324Z,94.84
2018-04-22T01:44:12.061Z,94.37
2018-04-22T01:45:12.305Z,94.56
2018-04-22T01:46:12.301Z,94.46
2018-04-22T01:47:12.293Z,94.46
2018-04-22T01:48:12.277Z,94.37
2018-04-22T01:49:12.272Z,94.56
2018-04-22T01:50:12.008Z,94.84
2018-04-22T01:51:12.252Z,94.32
2018-04-22T01:52:12.248Z,94.37
2018-04-22T01:53:12.235Z,94.37
2018-04-22T01:54:12.226Z,94.32
2018-04-22T01:55:12.220Z,94.6
2018-04-22T01:56:12.210Z,94.98
2018-04-22T01:57:12.200Z,94.98
2018-04-22T01:58:11.939Z,94.89
2018-04-22T01:59:12.190Z,94.98
2018-04-22T02:00:12.171Z,94.98
2018-04-22T02:01:12.162Z,94.98
2018-04-22T02:02:12.154Z,95.08
2018-04-22T02:03:12.143Z,95.08
2018-04-22T02:04:12.139Z,94.89
2018-04-22T02:05:11.874Z,94.98
2018-04-22T02:06:12.116Z,95.75
2018-04-22T02:07:12.109Z,95.65
2018-04-22T02:08:12.116Z,95.08
2018-04-22T02:09:12.093Z,95.46
2018-04-22T02:10:12.084Z,95.46
2018-04-22T02:11:12.078Z,95.27
2018-04-22T02:12:12.063Z,95.46
2018-04-22T02:13:12.055Z,95.6
2018-04-22T02:14:12.045Z,95.7
2018-04-22T02:15:12.042Z,95.79
2018-04-22T02:16:11.775Z,95.46
2018-04-22T02:17:12.021Z,95.36
2018-04-22T02:18:12.010Z,95.94
2018-04-22T02:19:12.008Z,95.65
2018-04-22T02:20:11.996Z,95.75
2018-04-22T02:21:11.992Z,95.65
2018-04-22T02:22:11.720Z,95.75
2018-04-22T02:23:11.966Z,95.65
2018-04-22T02:24:11.959Z,95.46
2018-04-22T02:25:11.951Z,95.65
2018-04-22T02:26:11.940Z,95.56
2018-04-22T02:27:11.985Z,96.03
2018-04-22T02:28:11.920Z,96.03
2018-04-22T02:29:11.911Z,96.03
2018-04-22T02:30:11.908Z,95.94
2018-04-22T02:31:11.891Z,96.03
2018-04-22T02:32:11.884Z,96.12
2018-04-22T02:33:11.621Z,96.12
2018-04-22T02:34:11.866Z,96.12
2018-04-22T02:35:11.604Z,95.84
2018-04-22T02:36:11.847Z,96.22
2018-04-22T02:37:11.839Z,95.75
2018-04-22T02:38:11.833Z,96.69
2018-04-22T02:39:11.827Z,96.12
2018-04-22T02:40:11.814Z,96.31
2018-04-22T02:41:11.815Z,96.22
2018-04-22T02:42:11.794Z,96.22
2018-04-22T02:43:11.785Z,95.84
2018-04-22T02:44:11.520Z,95.94
2018-04-22T02:45:11.764Z,96.5
2018-04-22T02:46:11.756Z,96.5
2018-04-22T02:47:11.492Z,96.79
2018-04-22T02:48:11.742Z,96.79
2018-04-22T02:49:11.734Z,96.22
2018-04-22T02:50:11.718Z,96.22
2018-04-22T02:51:11.466Z,96.12
2018-04-22T02:52:11.704Z,96.31
2018-04-22T02:53:11.690Z,96.31
2018-04-22T02:54:11.680Z,96.22
2018-04-22T02:55:11.671Z,96.31
2018-04-22T02:56:11.669Z,96.41
2018-04-22T02:57:11.656Z,96.41
2018-04-22T02:58:11.649Z,96.03
2018-04-22T02:59:11.634Z,96.22
2018-04-22T03:00:11.627Z,96.12
2018-04-22T03:01:11.623Z,96.03
2018-04-22T03:02:11.607Z,96.03
2018-04-22T03:03:11.596Z,96.89
2018-04-22T03:04:11.587Z,96.6
2018-04-22T03:05:11.325Z,96.65
2018-04-22T03:06:11.315Z,96.6
2018-04-22T03:07:11.576Z,96.6
2018-04-22T03:08:11.555Z,96.36
2018-04-22T03:09:11.549Z,96.36
2018-04-22T03:10:11.536Z,96.5
2018-04-22T03:11:11.522Z,96.84
2018-04-22T03:12:11.522Z,96.26
2018-04-22T03:13:11.502Z,96.89
2018-04-22T03:14:11.241Z,96.74
2018-04-22T03:15:11.245Z,96.74
2018-04-22T03:16:11.476Z,96.26
2018-04-22T03:17:11.465Z,96.45
2018-04-22T03:18:11.457Z,96.55
2018-04-22T03:19:11.449Z,96.55
2018-04-22T03:20:11.185Z,96.55
2018-04-22T03:21:11.428Z,96.55
2018-04-22T03:22:11.451Z,96.74
2018-04-22T03:23:11.409Z,96.65
2018-04-22T03:24:11.400Z,97.31
2018-04-22T03:25:11.395Z,97.12
2018-04-22T03:26:11.382Z,97.31
2018-04-22T03:27:11.373Z,97.12
2018-04-22T03:28:11.363Z,96.84
2018-04-22T03:29:11.354Z,96.45
2018-04-22T03:30:11.355Z,96.55
2018-04-22T03:31:11.084Z,96.74
2018-04-22T03:32:11.329Z,97.03
2018-04-22T03:33:11.316Z,97.31
2018-04-22T03:34:11.305Z,97.22
2018-04-22T03:35:11.298Z,97.12
2018-04-22T03:36:11.286Z,97.12
2018-04-22T03:37:11.277Z,97.12
2018-04-22T03:38:11.267Z,97.31
2018-04-22T03:39:11.259Z,97.22
2018-04-22T03:40:11.249Z,97.03
2018-04-22T03:41:10.993Z,97.31
2018-04-22T03:42:11.230Z,97.12
2018-04-22T03:43:11.220Z,97.12
2018-04-22T03:44:11.215Z,97.12
2018-04-22T03:45:11.205Z,97.22
2018-04-22T03:46:11.197Z,96.93
2018-04-22T03:47:11.182Z,97.31
2018-04-22T03:48:11.176Z,97.12
2018-04-22T03:49:11.165Z,96.93
2018-04-22T03:50:11.157Z,96.93
2018-04-22T03:51:11.146Z,97.12
2018-04-22T03:52:11.138Z,97.12
2018-04-22T03:53:11.127Z,97.03
2018-04-22T03:54:11.121Z,97.22
2018-04-22T03:55:11.115Z,96.84
2018-04-22T03:56:11.100Z,96.93
2018-04-22T03:57:11.090Z,97.03
2018-04-22T03:58:11.081Z,96.84
2018-04-22T03:59:11.086Z,97.12
2018-04-22T04:00:11.061Z,97.12
2018-04-22T04:01:11.056Z,97.03
2018-04-22T04:02:11.044Z,97.41
2018-04-22T04:03:11.033Z,97.12
2018-04-22T04:04:11.024Z,97.03
2018-04-22T04:05:11.014Z,97.12
2018-04-22T04:06:11.004Z,97.31
2018-04-22T04:07:10.995Z,97.31
2018-04-22T04:08:10.987Z,97.12
2018-04-22T04:09:10.976Z,97.27
2018-04-22T04:10:10.969Z,97.17
2018-04-22T04:11:10.958Z,97.17
2018-04-22T04:12:10.949Z,97.08
2018-04-22T04:13:10.939Z,97.08
2018-04-22T04:14:10.676Z,97.27
2018-04-22T04:15:10.923Z,97.17
2018-04-22T04:16:10.910Z,97.08
2018-04-22T04:17:10.902Z,97.08
2018-04-22T04:18:10.893Z,97.08
2018-04-22T04:19:10.883Z,97.27
2018-04-22T04:20:10.880Z,97.08
2018-04-22T04:21:10.870Z,97.08
2018-04-22T04:22:10.855Z,97.22
2018-04-22T04:23:10.595Z,97.41
2018-04-22T04:24:10.842Z,97.22
2018-04-22T04:25:10.830Z,97.22
2018-04-22T04:26:10.567Z,96.89
2018-04-22T04:27:10.811Z,97.27
2018-04-22T04:28:10.805Z,96.6
2018-04-22T04:29:10.799Z,96.7
2018-04-22T04:30:10.788Z,96.36
2018-04-22T04:31:10.778Z,95.79
2018-04-22T04:32:10.773Z,95.51
2018-04-22T04:33:10.766Z,95.75
2018-04-22T04:34:10.796Z,94.79
2018-04-22T04:35:10.747Z,94.79
2018-04-22T04:36:10.796Z,94.74
2018-04-22T04:37:10.734Z,93.7
2018-04-22T04:38:10.728Z,93.46
2018-04-22T04:39:10.720Z,92.98
2018-04-22T04:40:10.716Z,92.6
2018-04-22T04:41:10.457Z,92.36
2018-04-22T04:42:10.701Z,91.88
2018-04-22T04:43:10.696Z,91.21
2018-04-22T04:44:10.689Z,90.11
2018-04-22T04:45:10.682Z,88.92
2018-04-22T04:46:10.732Z,88.15
2018-04-22T04:47:10.685Z,87.96
2018-04-22T04:48:10.672Z,87.05
2018-04-22T04:49:10.664Z,87.15
2018-04-22T04:50:10.663Z,85.94
2018-04-22T04:51:10.402Z,84.99
2018-04-22T04:52:10.650Z,84.75
2018-04-22T04:53:10.652Z,83.79
2018-04-22T04:54:10.641Z,83.06
2018-04-22T04:55:10.638Z,82.59
2018-04-22T04:56:10.633Z,81.48
2018-04-22T04:57:10.642Z,80.81
2018-04-22T04:58:10.629Z,79.99
2018-04-22T04:59:10.626Z,78.59
2018-04-22T05:00:10.623Z,77.82
2018-04-22T05:01:10.617Z,77.44
2018-04-22T05:02:10.629Z,77.29
2018-04-22T05:03:10.612Z,75.65
2018-04-22T05:04:10.612Z,75.6
2018-04-22T05:05:10.608Z,74.58
2018-04-22T05:06:10.605Z,73.33
2018-04-22T05:07:10.611Z,71.55
2018-04-22T05:08:10.350Z,70.58
2018-04-22T05:09:10.604Z,70.04
2018-04-22T05:10:10.599Z,69.08
2018-04-22T05:11:10.599Z,68.15
2018-04-22T05:12:10.602Z,67
2018-04-22T05:13:10.598Z,66.65
2018-04-22T05:14:10.598Z,65.5
2018-04-22T05:15:10.610Z,64.73
2018-04-22T05:16:10.604Z,63.99
2018-04-22T05:17:10.602Z,62.93
2018-04-22T05:18:10.599Z,62.54
2018-04-22T05:19:10.605Z,62.06
2018-04-22T05:20:10.346Z,61.13
2018-04-22T05:21:10.599Z,61.13
2018-04-22T05:22:10.600Z,60.46
2018-04-22T05:23:10.606Z,60.46
2018-04-22T05:24:10.602Z,59.3
2018-04-22T05:25:10.602Z,59.4
2018-04-22T05:26:10.613Z,58.53
2018-04-22T05:27:10.351Z,58.27
2018-04-22T05:28:10.605Z,57.76
2018-04-22T05:29:10.606Z,58.05
2018-04-22T05:30:10.611Z,58.24
2018-04-22T05:31:10.649Z,58.05
2018-04-22T05:32:10.608Z,57.76
2018-04-22T05:33:10.610Z,57.76
2018-04-22T05:34:10.613Z,57.47
2018-04-22T05:35:10.612Z,57.09
2018-04-22T05:36:10.613Z,57.37
2018-04-22T05:37:10.613Z,56.7
2018-04-22T05:38:10.614Z,56.22
2018-04-22T05:39:10.615Z,56.35
2018-04-22T05:40:10.616Z,55.87
2018-04-22T05:41:10.621Z,55.41
2018-04-22T05:42:10.626Z,54.44
2018-04-22T05:43:10.622Z,54.64
2018-04-22T05:44:10.629Z,53.7
2018-04-22T05:45:10.626Z,53.7
2018-04-22T05:46:10.628Z,52.09
2018-04-22T05:47:10.631Z,51.99
2018-04-22T05:48:10.633Z,51.44
2018-04-22T05:49:10.637Z,50.67
2018-04-22T05:50:10.637Z,49.8
2018-04-22T05:51:10.643Z,49.73
2018-04-22T05:52:10.646Z,49.82
2018-04-22T05:53:10.649Z,48.47
2018-04-22T05:54:10.654Z,48.11
2018-04-22T05:55:10.661Z,47.74
2018-04-22T05:56:10.669Z,47.55
2018-04-22T05:57:10.669Z,46.58
2018-04-22T05:58:10.671Z,46.61
2018-04-22T05:59:10.680Z,45.93
2018-04-22T06:00:10.690Z,46.25
2018-04-22T06:01:11.963Z,45.76
2018-04-22T06:02:10.746Z,44.81
2018-04-22T06:03:10.702Z,44.33
2018-04-22T06:05:10.459Z,43.77
2018-04-22T06:06:10.718Z,42.82
2018-04-22T06:07:10.476Z,42.14
2018-04-22T06:08:10.731Z,41.66
2018-04-22T06:09:10.739Z,41.68
2018-04-22T06:10:10.746Z,41.39
2018-04-22T06:11:10.760Z,41.22
2018-04-22T06:12:10.770Z,40.73
2018-04-22T06:13:10.765Z,40.05
2018-04-22T06:14:10.521Z,39.95
2018-04-22T06:15:10.528Z,39.88
2018-04-22T06:16:10.787Z,40.08
2018-04-22T06:17:10.803Z,39.49
2018-04-22T06:18:10.551Z,39.22
2018-04-22T06:19:10.561Z,39.12
2018-04-22T06:20:10.821Z,39.14
2018-04-22T06:21:10.829Z,38.27
2018-04-22T06:22:10.841Z,38.19
2018-04-22T06:23:10.846Z,37.6
2018-04-22T06:24:10.854Z,37.52
2018-04-22T06:25:10.865Z,37.14
2018-04-22T06:26:10.873Z,36.85
2018-04-22T06:27:10.628Z,36.16
2018-04-22T06:28:10.892Z,36.46
2018-04-22T06:29:10.904Z,36.07
2018-04-22T06:30:10.908Z,36.38
2018-04-22T06:31:10.918Z,36.47
2018-04-22T06:32:10.930Z,35.89
2018-04-22T06:33:10.937Z,35.71
2018-04-22T06:34:10.948Z,34.94
2018-04-22T06:35:10.955Z,34.86
2018-04-22T06:36:10.968Z,34.76
2018-04-22T06:37:10.723Z,33.78
2018-04-22T06:38:10.989Z,33.98
2018-04-22T06:39:10.743Z,33.29
2018-04-22T06:40:11.009Z,33.49
2018-04-22T06:41:11.017Z,33.59
2018-04-22T06:42:10.776Z,33.2
2018-04-22T06:43:10.787Z,32.92
2018-04-22T06:44:10.795Z,32.92
2018-04-22T06:45:11.063Z,32.53
2018-04-22T06:46:11.126Z,32.34
2018-04-22T06:47:11.082Z,31.87
2018-04-22T06:48:11.091Z,31.77
2018-04-22T06:49:11.102Z,31.48
2018-04-22T06:50:11.118Z,31.57
2018-04-22T06:51:10.872Z,30.9
2018-04-22T06:52:11.136Z,30.62
2018-04-22T06:53:11.148Z,30.22
2018-04-22T06:54:11.161Z,29.93
2018-04-22T06:55:11.169Z,29.93
2018-04-22T06:56:11.180Z,29.44
2018-04-22T06:57:10.955Z,29.74
2018-04-22T06:58:11.220Z,29.83
2018-04-22T06:59:11.223Z,29.66
2018-04-22T07:00:10.976Z,28.58
2018-04-22T07:01:10.985Z,28.39
2018-04-22T07:02:11.255Z,28.4
2018-04-22T07:03:12.738Z,27.9
2018-04-22T07:04:11.274Z,27.8
2018-04-22T07:05:11.285Z,28
2018-04-22T07:06:11.298Z,27.91
2018-04-22T07:07:11.309Z,28.11
2018-04-22T07:08:11.320Z,27.81
2018-04-22T07:09:11.333Z,27.62
2018-04-22T07:10:11.093Z,27.42
2018-04-22T07:11:11.357Z,26.74
2018-04-22T07:12:11.375Z,26.35
2018-04-22T07:13:11.381Z,25.86
2018-04-22T07:14:11.390Z,26.06
2018-04-22T07:15:11.406Z,26.35
2018-04-22T07:16:11.415Z,26.15
2018-04-22T07:17:11.429Z,27.13
2018-04-22T07:18:11.437Z,26.74
2018-04-22T07:19:11.453Z,26.64
2018-04-22T07:20:11.466Z,26.54
2018-04-22T07:21:11.472Z,25.96
2018-04-22T07:22:11.490Z,26.06
2018-04-22T07:23:11.501Z,26.15
2018-04-22T07:24:11.277Z,25.76
2018-04-22T07:25:11.521Z,26.07
2018-04-22T07:26:11.534Z,25.78
2018-04-22T07:27:11.553Z,25.98
2018-04-22T07:28:11.568Z,25.78
2018-04-22T07:29:11.571Z,25.57
2018-04-22T07:30:11.582Z,25.86
2018-04-22T07:31:11.594Z,26.45
2018-04-22T07:32:11.656Z,26.53
2018-04-22T07:33:11.620Z,27.02
2018-04-22T07:34:11.633Z,27.12
2018-04-22T07:35:11.644Z,26.92
2018-04-22T07:36:11.655Z,26.93
2018-04-22T07:37:11.668Z,26.45
2018-04-22T07:38:11.681Z,26.45
2018-04-22T07:39:11.694Z,26.06
2018-04-22T07:40:11.706Z,26.35
2018-04-22T07:41:11.466Z,26.53
2018-04-22T07:42:11.743Z,26.73
2018-04-22T07:43:11.747Z,26.34
2018-04-22T07:44:11.505Z,26.35
2018-04-22T07:45:11.774Z,26.14
2018-04-22T07:46:11.782Z,26.63
2018-04-22T07:47:11.803Z,26.45
2018-04-22T07:48:11.809Z,26.15
2018-04-22T07:49:11.824Z,25.86
2018-04-22T07:50:11.842Z,25.68
2018-04-22T07:51:11.860Z,25.78
2018-04-22T07:52:11.871Z,25.5
2018-04-22T07:53:11.625Z,25.98
2018-04-22T07:54:11.893Z,25.11
2018-04-22T07:55:11.914Z,24.91
2018-04-22T07:56:11.926Z,25.31
2018-04-22T07:57:11.936Z,25.01
2018-04-22T07:58:11.952Z,24.81
2018-04-22T07:59:11.966Z,25.4
2018-04-22T08:00:11.978Z,24.62
2018-04-22T08:01:11.991Z,25.21
2018-04-22T08:02:12.005Z,25.02
2018-04-22T08:03:12.018Z,24.71
2018-04-22T08:04:12.047Z,25.01
2018-04-22T08:05:12.056Z,25.11
2018-04-22T08:06:12.065Z,24.91
2018-04-22T08:07:12.075Z,25.21
2018-04-22T08:08:12.090Z,24.91
2018-04-22T08:09:12.110Z,25.31
2018-04-22T08:10:12.113Z,25.01
2018-04-22T08:11:12.131Z,25.89
2018-04-22T08:12:12.143Z,25.88
2018-04-22T08:13:12.155Z,25.88
2018-04-22T08:14:12.176Z,26.17
2018-04-22T08:15:12.179Z,26.45
2018-04-22T08:16:11.940Z,26.53
2018-04-22T08:17:11.953Z,27.12
2018-04-22T08:18:12.217Z,27.51
2018-04-22T08:19:12.231Z,28
2018-04-22T08:20:12.243Z,28
2018-04-22T08:21:12.260Z,27.98
2018-04-22T08:22:12.027Z,28.38
2018-04-22T08:23:12.029Z,28.75
2018-04-22T08:24:12.294Z,28.65
2018-04-22T08:25:12.310Z,28.75
2018-04-22T08:26:12.323Z,29.21
2018-04-22T08:27:12.339Z,29.69
2018-04-22T08:28:12.346Z,30.26
2018-04-22T08:29:12.355Z,30.54
2018-04-22T08:30:12.373Z,30.62
2018-04-22T08:31:12.379Z,31.21
2018-04-22T08:32:12.395Z,31.97
2018-04-22T08:33:12.401Z,32.44
2018-04-22T08:34:12.411Z,33.12
2018-04-22T08:35:12.430Z,33.29
2018-04-22T08:36:12.476Z,34.44
2018-04-22T08:37:12.215Z,34.54
2018-04-22T08:38:12.454Z,34.53
2018-04-22T08:39:12.462Z,34.61
2018-04-22T08:40:12.473Z,35.38
2018-04-22T08:41:12.481Z,35.85
2018-04-22T08:42:12.489Z,36.33
2018-04-22T08:43:12.498Z,36.02
2018-04-22T08:44:12.254Z,36.6
2018-04-22T08:45:12.525Z,37.28
2018-04-22T08:46:12.518Z,37.55
2018-04-22T08:47:12.530Z,37.26
2018-04-22T08:48:12.537Z,37.54
2018-04-22T08:49:12.535Z,37.82
2018-04-22T08:50:12.542Z,38.48
2018-04-22T08:51:12.295Z,38.78
2018-04-22T08:52:12.551Z,40.01
2018-04-22T08:53:12.554Z,40.2
2018-04-22T08:54:12.559Z,40.01
2018-04-22T08:55:12.578Z,40.38
2018-04-22T08:56:12.567Z,40.57
2018-04-22T08:57:12.577Z,40.96
2018-04-22T08:58:12.579Z,41.03
2018-04-22T08:59:12.581Z,40.94
2018-04-22T09:00:12.594Z,41.42
2018-04-22T09:01:12.343Z,41.91
2018-04-22T09:02:12.673Z,41.42
2018-04-22T09:03:12.608Z,42.29
2018-04-22T09:04:12.591Z,42.85
2018-04-22T09:06:12.597Z,43.52
2018-04-22T09:07:12.595Z,43.33
2018-04-22T09:08:13.869Z,44.01
2018-04-22T09:09:12.598Z,44.01
2018-04-22T09:10:12.598Z,44.18
2018-04-22T09:11:13.213Z,44.08
2018-04-22T09:12:12.605Z,44.27
2018-04-22T09:13:12.609Z,44.18
2018-04-22T09:14:12.348Z,44.27
2018-04-22T09:15:12.601Z,44.56
2018-04-22T09:16:12.601Z,45.34
2018-04-22T09:17:12.352Z,45.14
2018-04-22T09:18:12.603Z,45.34
2018-04-22T09:19:12.606Z,45.72
2018-04-22T09:20:12.608Z,45.34
2018-04-22T09:21:12.607Z,45.03
2018-04-22T09:22:12.606Z,45.12
2018-04-22T09:23:12.621Z,45.41
2018-04-22T09:24:12.609Z,44.93
2018-04-22T09:25:12.605Z,44.54
2018-04-22T09:26:12.615Z,44.54
2018-04-22T09:27:12.610Z,45.12
2018-04-22T09:28:12.609Z,45.41
2018-04-22T09:29:12.609Z,45.51
2018-04-22T09:30:12.608Z,45.7
2018-04-22T09:31:12.609Z,46.28
2018-04-22T09:32:12.355Z,46.37
2018-04-22T09:33:12.710Z,45.99
2018-04-22T09:34:12.610Z,47.63
2018-04-22T09:35:12.610Z,47.34
2018-04-22T09:36:12.610Z,47.53
2018-04-22T09:37:12.609Z,46.95
2018-04-22T09:38:12.610Z,45.89
2018-04-22T09:39:12.611Z,45.51
2018-04-22T09:40:12.619Z,44.93
2018-04-22T09:41:12.613Z,44.64
2018-04-22T09:42:12.610Z,45.12
2018-04-22T09:43:12.656Z,45.41
2018-04-22T09:44:12.612Z,46.76
2018-04-22T09:45:12.615Z,46.18
2018-04-22T09:46:12.624Z,45.51
2018-04-22T09:47:12.613Z,44.73
2018-04-22T09:48:12.609Z,44.35
2018-04-22T09:49:12.609Z,44.15
2018-04-22T09:50:12.663Z,44.06
2018-04-22T09:51:12.612Z,44.18
2018-04-22T09:52:12.610Z,43.7
2018-04-22T09:53:12.359Z,44.56
2018-04-22T09:54:12.610Z,43.7
2018-04-22T09:55:12.611Z,43.31
2018-04-22T09:56:12.611Z,43.6
2018-04-22T09:57:12.610Z,43.5
2018-04-22T09:58:12.614Z,44.08
2018-04-22T09:59:12.618Z,44.76
2018-04-22T10:00:12.615Z,44.46
2018-04-22T10:01:12.610Z,44.37
2018-04-22T10:02:12.610Z,44.66
2018-04-22T10:03:12.615Z,44.56
2018-04-22T10:04:12.611Z,45.24
2018-04-22T10:05:12.615Z,46.2
2018-04-22T10:06:12.616Z,46.78
2018-04-22T10:07:12.616Z,46.11
2018-04-22T10:08:12.619Z,45.34
2018-04-22T10:09:12.621Z,45.45
2018-04-22T10:10:12.619Z,44.49
2018-04-22T10:11:12.651Z,44.08
2018-04-22T10:12:12.625Z,43.72
2018-04-22T10:13:12.614Z,44.01
2018-04-22T10:14:12.619Z,44.1
2018-04-22T10:15:12.632Z,43.91
2018-04-22T10:16:12.619Z,44.2
2018-04-22T10:17:12.614Z,44.39
2018-04-22T10:18:12.362Z,44.39
2018-04-22T10:19:12.615Z,45.07
2018-04-22T10:20:12.615Z,44.59
2018-04-22T10:21:12.621Z,44.1
2018-04-22T10:22:12.624Z,44.1
2018-04-22T10:23:12.376Z,44.2
2018-04-22T10:24:12.621Z,43.91
2018-04-22T10:25:12.623Z,44.49
2018-04-22T10:26:12.619Z,44.12
2018-04-22T10:27:12.618Z,43.52
2018-04-22T10:28:12.624Z,42.94
2018-04-22T10:29:12.626Z,42.77
2018-04-22T10:30:12.623Z,43.06
2018-04-22T10:31:12.655Z,42.58
2018-04-22T10:32:12.621Z,43.16
2018-04-22T10:33:12.629Z,42.87
2018-04-22T10:34:12.638Z,42.87
2018-04-22T10:35:12.621Z,43.26
2018-04-22T10:36:12.771Z,43.84
2018-04-22T10:37:12.625Z,43.84
2018-04-22T10:38:12.626Z,43.84
2018-04-22T10:39:12.640Z,44.12
2018-04-22T10:40:12.660Z,44.7
2018-04-22T10:41:12.627Z,44.6
2018-04-22T10:42:12.381Z,44.42
2018-04-22T10:43:12.374Z,43.84
2018-04-22T10:44:12.629Z,43.45
2018-04-22T10:45:12.832Z,43.26
2018-04-22T10:46:12.632Z,42.58
2018-04-22T10:47:12.630Z,42.1
2018-04-22T10:48:12.635Z,42
2018-04-22T10:49:12.634Z,42.68
2018-04-22T10:50:12.632Z,44.22
2018-04-22T10:51:12.633Z,44.7
2018-04-22T10:52:12.634Z,43.84
2018-04-22T10:53:12.683Z,43.16
2018-04-22T10:54:12.634Z,43.45
2018-04-22T10:55:12.694Z,43.26
2018-04-22T10:56:12.638Z,43.37
2018-04-22T10:57:12.383Z,43.85
2018-04-22T10:58:12.385Z,45.5
2018-04-22T10:59:12.445Z,44.73
2018-04-22T11:00:12.645Z,42.89
2018-04-22T11:01:12.642Z,42.31
2018-04-22T11:02:12.639Z,42.31
2018-04-22T11:03:12.387Z,42.31
2018-04-22T11:04:12.661Z,42.5
2018-04-22T11:05:12.726Z,42.5
2018-04-22T11:06:12.642Z,42.31
2018-04-22T11:07:12.653Z,42.41
2018-04-22T11:08:12.642Z,42.5
2018-04-22T11:09:12.651Z,42.31
2018-04-22T11:10:12.648Z,42.89
2018-04-22T11:11:12.646Z,42.04
2018-04-22T11:12:12.666Z,41.56
2018-04-22T11:13:12.397Z,40.96
2018-04-22T11:14:12.703Z,41.15
2018-04-22T11:15:12.396Z,40.57
2018-04-22T11:16:12.663Z,40.67
2018-04-22T11:17:12.653Z,40.86
2018-04-22T11:18:12.659Z,41.15
2018-04-22T11:19:12.654Z,41.73
2018-04-22T11:20:12.657Z,41.93
2018-04-22T11:21:12.655Z,41.83
2018-04-22T11:22:12.787Z,41.35
2018-04-22T11:23:12.655Z,41.44
2018-04-22T11:24:12.656Z,41.08
2018-04-22T11:25:12.667Z,41.17
2018-04-22T11:26:12.664Z,40.77
2018-04-22T11:27:12.671Z,41.08
2018-04-22T11:28:12.409Z,40.98
2018-04-22T11:29:12.661Z,41.25
2018-04-22T11:30:12.661Z,41.56
2018-04-22T11:31:12.660Z,41.08
2018-04-22T11:32:12.662Z,40.88
2018-04-22T11:33:12.668Z,41.27
2018-04-22T11:34:12.666Z,41.94
2018-04-22T11:35:12.668Z,41.94
2018-04-22T11:36:12.689Z,41.36
2018-04-22T11:37:12.667Z,41.46
2018-04-22T11:38:12.669Z,41.17
2018-04-22T11:39:12.416Z,41.08
2018-04-22T11:40:12.668Z,40.98
2018-04-22T11:41:12.682Z,40.98
2018-04-22T11:42:12.429Z,40.2
2018-04-22T11:43:12.420Z,40.3
2018-04-22T11:44:12.696Z,40.98
2018-04-22T11:45:12.673Z,41.46
2018-04-22T11:46:12.674Z,42.14
2018-04-22T11:47:12.678Z,42.91
2018-04-22T11:48:12.693Z,42.14
2018-04-22T11:49:12.678Z,41.46
2018-04-22T11:50:12.680Z,41.08
2018-04-22T11:51:12.683Z,40.78
2018-04-22T11:52:12.430Z,40.88
2018-04-22T11:53:12.682Z,40.98
2018-04-22T11:54:12.430Z,40.98
2018-04-22T11:55:12.432Z,41.75
2018-04-22T11:56:12.685Z,42.52
2018-04-22T11:57:12.689Z,42.72
2018-04-22T11:58:12.687Z,42.82
2018-04-22T11:59:12.687Z,43.01
2018-04-22T12:00:12.783Z,42.52
2018-04-22T12:01:12.696Z,42.43
2018-04-22T12:02:12.695Z,42.04
2018-04-22T12:03:12.691Z,42.14
2018-04-22T12:04:12.690Z,42.24
2018-04-22T12:05:12.694Z,42.43
2018-04-22T12:06:12.694Z,42.04
2018-04-22T12:07:12.696Z,42.14
2018-04-22T12:08:12.694Z,41.75
2018-04-22T12:09:12.712Z,41.75
2018-04-22T12:10:12.697Z,41.75
2018-04-22T12:11:12.701Z,41.66
2018-04-22T12:12:12.699Z,41.17
2018-04-22T12:13:12.447Z,41.56
2018-04-22T12:14:12.447Z,41.94
2018-04-22T12:15:12.702Z,42.04
2018-04-22T12:16:12.709Z,41.94
2018-04-22T12:17:12.730Z,41.75
2018-04-22T12:18:12.705Z,42.24
2018-04-22T12:19:12.704Z,42.52
2018-04-22T12:20:12.706Z,42.25
2018-04-22T12:21:12.710Z,43.23
2018-04-22T12:22:12.715Z,43.51
2018-04-22T12:23:12.720Z,43.13
2018-04-22T12:24:12.719Z,43.03
2018-04-22T12:25:12.466Z,42.83
2018-04-22T12:26:12.724Z,42.93
2018-04-22T12:27:12.730Z,42.83
2018-04-22T12:28:12.716Z,42.74
2018-04-22T12:29:12.723Z,43.23
2018-04-22T12:30:12.464Z,42.65
2018-04-22T12:31:12.465Z,42.74
2018-04-22T12:32:12.468Z,42.65
2018-04-22T12:33:12.468Z,42.16
2018-04-22T12:34:12.731Z,42.07
2018-04-22T12:35:12.724Z,42.83
2018-04-22T12:36:12.476Z,42.83
2018-04-22T12:37:12.472Z,42.65
2018-04-22T12:38:12.776Z,42.74
2018-04-22T12:39:12.741Z,42.74
2018-04-22T12:40:12.476Z,42.16
2018-04-22T12:41:12.729Z,42.16
2018-04-22T12:42:12.729Z,42.07
2018-04-22T12:43:12.477Z,42.65
2018-04-22T12:44:12.479Z,42.35
2018-04-22T12:45:12.734Z,42.16
2018-04-22T12:46:12.734Z,42.45
2018-04-22T12:47:12.736Z,42.65
2018-04-22T12:48:12.758Z,42.83
2018-04-22T12:49:12.737Z,42.16
2018-04-22T12:50:12.757Z,42.55
2018-04-22T12:51:12.743Z,42.07
2018-04-22T12:52:12.740Z,42.45
2018-04-22T12:53:12.489Z,42.07
2018-04-22T12:54:12.744Z,42.55
2018-04-22T12:55:12.757Z,43.9
2018-04-22T12:56:12.745Z,42.96
2018-04-22T12:57:12.747Z,41.97